createdAt,value
2023-05-05T00:00:21.758Z,5.67
2023-05-05T00:02:50.988Z,4.03
2023-05-05T00:05:19.014Z,6.10
2023-05-05T00:07:46.872Z,5.43
2023-05-05T00:10:15.040Z,4.43
2023-05-05T00:12:42.923Z,3.97
2023-05-05T00:15:11.218Z,6.40
2023-05-05T00:17:39.412Z,6.13
2023-05-05T00:20:10.619Z,4.97
2023-05-05T00:22:38.531Z,4.50
2023-05-05T00:25:07.493Z,5.60
2023-05-05T00:27:35.375Z,4.10
2023-05-05T00:30:03.583Z,4.97
2023-05-05T00:32:31.685Z,4.63
2023-05-05T00:35:00.613Z,5.23
2023-05-05T00:37:29.816Z,5.33
2023-05-05T00:39:57.750Z,5.37
2023-05-05T00:42:25.718Z,5.20
2023-05-05T00:44:54.724Z,4.07
2023-05-05T00:47:22.728Z,5.73
2023-05-05T00:49:51.956Z,3.80
2023-05-05T00:52:20.207Z,4.47
2023-05-05T00:54:49.608Z,5.87
2023-05-05T00:57:18.297Z,6.67
2023-05-05T00:59:47.484Z,4.33
2023-05-05T01:02:15.376Z,5.90
2023-05-05T01:04:43.462Z,4.17
2023-05-05T01:07:28.204Z,7.37
2023-05-05T01:10:19.102Z,7.37
2023-05-05T01:13:03.351Z,7.27
2023-05-05T01:15:37.413Z,5.37
2023-05-05T01:18:15.383Z,7.33
2023-05-05T01:20:54.228Z,7.03
2023-05-05T01:23:57.745Z,5.73
2023-05-05T01:26:59.137Z,5.73
2023-05-05T01:29:56.411Z,7.70
2023-05-05T01:32:30.707Z,7.40
2023-05-05T01:35:05.229Z,6.53
2023-05-05T01:37:44.295Z,6.83
2023-05-05T01:40:16.683Z,6.47
2023-05-05T01:42:47.177Z,5.77
2023-05-05T01:45:18.802Z,5.60
2023-05-05T01:47:50.019Z,5.20
2023-05-05T01:50:21.099Z,7.37
2023-05-05T01:52:51.320Z,9.23
2023-05-05T01:55:23.229Z,8.30
2023-05-05T01:57:52.174Z,5.60
2023-05-05T02:00:21.904Z,8.23
2023-05-05T02:02:52.704Z,8.17
2023-05-05T02:05:22.881Z,6.17
2023-05-05T02:07:54.310Z,5.77
2023-05-05T02:10:23.062Z,9.23
2023-05-05T02:12:54.122Z,25.80
2023-05-05T02:15:24.509Z,12.37
2023-05-05T02:17:58.034Z,6.37
2023-05-05T02:20:29.053Z,6.73
2023-05-05T02:22:57.195Z,5.50
2023-05-05T02:25:32.312Z,7.47
2023-05-05T02:28:04.713Z,8.57
2023-05-05T02:30:37.413Z,7.20
2023-05-05T02:33:12.219Z,6.30
2023-05-05T02:35:42.980Z,7.90
2023-05-05T02:38:20.452Z,8.53
2023-05-05T02:40:55.810Z,8.80
2023-05-05T02:43:26.578Z,8.27
2023-05-05T02:45:54.760Z,6.73
2023-05-05T02:48:24.865Z,6.83
2023-05-05T02:50:54.276Z,11.27
2023-05-05T02:53:31.129Z,9.67
2023-05-05T02:56:11.417Z,9.13
2023-05-05T02:58:54.404Z,7.30
2023-05-05T03:01:37.316Z,9.20
2023-05-05T03:04:16.133Z,10.33
2023-05-05T03:06:57.050Z,5.97
2023-05-05T03:09:37.808Z,9.50
2023-05-05T03:12:11.414Z,10.10
2023-05-05T03:14:55.051Z,6.60
2023-05-05T03:17:26.464Z,8.30
2023-05-05T03:19:57.206Z,8.63
2023-05-05T03:22:27.586Z,7.27
2023-05-05T03:24:55.763Z,7.57
2023-05-05T03:27:25.490Z,7.60
2023-05-05T03:29:53.511Z,5.97
2023-05-05T03:32:23.631Z,7.80
2023-05-05T03:34:56.498Z,6.60
2023-05-05T03:37:30.335Z,5.73
2023-05-05T03:39:59.078Z,6.70
2023-05-05T03:42:27.065Z,6.83
2023-05-05T03:44:55.138Z,7.13
2023-05-05T03:47:24.731Z,7.73
2023-05-05T03:49:53.445Z,6.60
2023-05-05T03:52:25.531Z,12.17
2023-05-05T03:54:54.203Z,5.93
2023-05-05T03:57:22.092Z,7.97
2023-05-05T03:59:49.989Z,8.67
2023-05-05T04:02:18.896Z,8.17
2023-05-05T04:04:47.841Z,11.70
2023-05-05T04:07:15.980Z,7.13
2023-05-05T04:09:46.230Z,7.37
2023-05-05T04:12:16.938Z,10.73
2023-05-05T04:14:44.986Z,10.83
2023-05-05T04:17:12.871Z,9.87
2023-05-05T04:19:41.299Z,7.10
2023-05-05T04:22:10.449Z,6.63
2023-05-05T04:24:38.739Z,9.40
2023-05-05T04:27:07.940Z,10.23
2023-05-05T04:29:36.091Z,10.80
2023-05-05T04:32:04.585Z,9.03
2023-05-05T04:34:32.822Z,6.77
2023-05-05T04:37:01.146Z,6.60
2023-05-05T04:39:31.350Z,6.93
2023-05-05T04:41:59.941Z,7.93
2023-05-05T04:44:29.440Z,8.30
2023-05-05T04:46:57.876Z,7.37
2023-05-05T04:49:25.866Z,9.77
2023-05-05T04:51:53.870Z,6.37
2023-05-05T04:54:22.659Z,8.80
2023-05-05T04:56:51.595Z,7.40
2023-05-05T04:59:19.562Z,11.90
2023-05-05T05:01:49.005Z,7.30
2023-05-05T05:04:18.535Z,7.80
2023-05-05T05:06:46.922Z,11.13
2023-05-05T05:09:14.984Z,8.63
2023-05-05T05:11:43.280Z,9.97
2023-05-05T05:14:11.149Z,7.30
2023-05-05T05:16:39.341Z,7.57
2023-05-05T05:19:08.703Z,7.67
2023-05-05T05:21:37.083Z,8.93
2023-05-05T05:24:05.462Z,8.80
2023-05-05T05:26:33.661Z,7.37
2023-05-05T05:29:01.629Z,9.77
2023-05-05T05:31:29.672Z,11.47
2023-05-05T05:33:57.593Z,7.00
2023-05-05T05:36:27.046Z,7.87
2023-05-05T05:38:55.465Z,11.97
2023-05-05T05:41:23.508Z,8.93
2023-05-05T05:43:51.696Z,9.20
2023-05-05T05:46:21.730Z,22.37
2023-05-05T05:48:50.011Z,9.87
2023-05-05T05:51:18.721Z,8.77
2023-05-05T05:53:49.269Z,11.10
2023-05-05T05:56:17.595Z,7.53
2023-05-05T05:58:48.460Z,7.60
2023-05-05T06:01:16.919Z,9.60
2023-05-05T06:03:45.636Z,11.03
2023-05-05T06:06:14.022Z,9.10
2023-05-05T06:08:42.173Z,13.03
2023-05-05T06:11:11.414Z,11.50
2023-05-05T06:13:39.299Z,7.13
2023-05-05T06:16:08.709Z,8.63
2023-05-05T06:18:37.676Z,11.17
2023-05-05T06:21:06.135Z,8.30
2023-05-05T06:23:34.073Z,9.17
2023-05-05T06:26:05.898Z,7.20
2023-05-05T06:28:35.112Z,6.53
2023-05-05T06:31:03.139Z,7.50
2023-05-05T06:33:31.032Z,8.40
2023-05-05T06:35:58.907Z,6.50
2023-05-05T06:38:26.817Z,8.47
2023-05-05T06:40:54.688Z,7.40
2023-05-05T06:43:22.561Z,11.33
2023-05-05T06:45:57.194Z,8.73
2023-05-05T06:48:25.541Z,8.90
2023-05-05T06:50:53.427Z,9.73
2023-05-05T06:53:21.588Z,11.37
2023-05-05T06:55:49.543Z,11.97
2023-05-05T06:58:17.483Z,7.00
2023-05-05T07:00:45.517Z,8.07
2023-05-05T07:03:15.127Z,12.23
2023-05-05T07:05:43.296Z,7.10
2023-05-05T07:08:11.339Z,7.53
2023-05-05T07:10:39.326Z,7.13
2023-05-05T07:13:08.126Z,6.50
2023-05-05T07:15:36.337Z,8.83
2023-05-05T07:18:04.520Z,9.87
2023-05-05T07:20:33.795Z,8.63
2023-05-05T07:23:01.783Z,9.20
2023-05-05T07:25:29.815Z,6.30
2023-05-05T07:27:58.093Z,9.23
2023-05-05T07:30:26.628Z,7.57
2023-05-05T07:32:55.038Z,7.50
2023-05-05T07:35:23.679Z,7.30
2023-05-05T07:37:52.962Z,9.10
2023-05-05T07:40:20.979Z,9.10
2023-05-05T07:42:51.779Z,11.43
2023-05-05T07:45:19.918Z,10.40
2023-05-05T07:47:47.879Z,9.97
2023-05-05T07:50:16.165Z,8.80
2023-05-05T07:52:49.621Z,9.10
2023-05-05T07:55:23.181Z,8.83
2023-05-05T07:57:51.250Z,9.10
2023-05-05T08:00:20.338Z,8.77
2023-05-05T08:02:48.783Z,8.53
2023-05-05T08:05:16.849Z,10.87
2023-05-05T08:07:44.794Z,9.43
2023-05-05T08:10:13.340Z,8.03
2023-05-05T08:12:42.664Z,9.07
2023-05-05T08:15:11.608Z,10.27
2023-05-05T08:17:48.074Z,9.13
2023-05-05T08:20:16.853Z,12.37
2023-05-05T08:22:45.318Z,11.53
2023-05-05T08:25:14.633Z,11.20
2023-05-05T08:27:44.379Z,9.40
2023-05-05T08:30:13.662Z,9.60
2023-05-05T08:32:41.694Z,8.07
2023-05-05T08:35:11.809Z,9.20
2023-05-05T08:37:40.118Z,9.73
2023-05-05T08:40:11.979Z,10.27
2023-05-05T08:42:39.932Z,11.57
2023-05-05T08:45:11.781Z,10.93
2023-05-05T08:47:40.524Z,9.37
2023-05-05T08:50:12.555Z,12.23
2023-05-05T08:52:44.498Z,10.30
2023-05-05T08:55:24.180Z,11.47
2023-05-05T08:57:57.685Z,10.93
2023-05-05T09:00:28.623Z,9.07
2023-05-05T09:02:59.829Z,9.07
2023-05-05T09:05:30.290Z,9.70
2023-05-05T09:07:58.549Z,10.33
2023-05-05T09:10:28.983Z,9.67
2023-05-05T09:12:57.701Z,12.40
2023-05-05T09:15:28.396Z,10.80
2023-05-05T09:17:58.696Z,10.03
2023-05-05T09:20:35.539Z,11.00
2023-05-05T09:23:11.019Z,11.20
2023-05-05T09:25:39.440Z,10.60
2023-05-05T09:28:12.333Z,9.87
2023-05-05T09:30:43.499Z,9.23
2023-05-05T09:33:12.393Z,15.27
2023-05-05T09:35:53.101Z,11.80
2023-05-05T09:38:23.347Z,9.23
2023-05-05T09:40:55.245Z,12.00
2023-05-05T09:43:24.791Z,9.53
2023-05-05T09:46:08.496Z,11.07
2023-05-05T09:48:37.370Z,10.17
2023-05-05T09:51:05.918Z,10.07
2023-05-05T09:53:41.499Z,9.17
2023-05-05T09:56:10.313Z,8.43
2023-05-05T09:58:38.670Z,26.67
2023-05-05T10:01:24.247Z,10.37
2023-05-05T10:03:53.104Z,8.53
2023-05-05T10:06:22.021Z,11.10
2023-05-05T10:09:02.457Z,8.10
2023-05-05T10:11:31.089Z,8.00
2023-05-05T10:13:59.337Z,10.03
2023-05-05T10:16:31.154Z,9.00
2023-05-05T10:19:04.187Z,11.07
2023-05-05T10:21:42.041Z,8.30
2023-05-05T10:24:22.889Z,7.53
2023-05-05T10:26:52.960Z,8.10
2023-05-05T10:29:34.349Z,7.77
2023-05-05T10:32:40.813Z,7.20
2023-05-05T10:35:04.804Z,8.10
2023-05-05T10:37:33.792Z,8.73
2023-05-05T10:40:03.522Z,9.27
2023-05-05T10:42:32.362Z,11.10
2023-05-05T10:45:00.328Z,9.53
2023-05-05T10:47:30.660Z,9.13
2023-05-05T10:50:08.093Z,8.67
2023-05-05T10:52:45.786Z,8.50
2023-05-05T10:55:19.338Z,9.57
2023-05-05T10:57:52.813Z,11.47
2023-05-05T11:00:52.220Z,7.60
2023-05-05T11:03:24.230Z,11.17
2023-05-05T11:06:13.598Z,7.77
2023-05-05T11:08:44.320Z,9.50
2023-05-05T11:11:13.969Z,12.90
2023-05-05T11:13:42.537Z,9.13
2023-05-05T11:16:48.000Z,10.57
2023-05-05T11:19:48.520Z,7.97
2023-05-05T11:22:17.502Z,8.97
2023-05-05T11:24:45.708Z,10.23
2023-05-05T11:27:13.680Z,8.73
2023-05-05T11:30:11.701Z,8.27
2023-05-05T11:32:39.834Z,9.00
2023-05-05T11:35:09.461Z,9.73
2023-05-05T11:37:39.437Z,7.87
2023-05-05T11:40:21.839Z,10.13
2023-05-05T11:42:50.176Z,6.93
2023-05-05T11:45:24.071Z,7.77
2023-05-05T11:47:52.469Z,8.50
2023-05-05T11:50:23.333Z,9.57
2023-05-05T11:52:51.667Z,8.10
2023-05-05T11:55:23.860Z,10.17
2023-05-05T11:57:52.358Z,9.97
2023-05-05T12:00:21.101Z,9.70
2023-05-05T12:02:57.977Z,9.83
2023-05-05T12:05:27.838Z,8.33
2023-05-05T12:07:59.559Z,9.50
2023-05-05T12:10:28.531Z,9.03
2023-05-05T12:12:56.564Z,8.90
2023-05-05T12:15:33.289Z,9.57
2023-05-05T12:18:03.041Z,7.90
2023-05-05T12:20:35.063Z,11.20
2023-05-05T12:23:04.584Z,8.37
2023-05-05T12:25:38.289Z,10.73
2023-05-05T12:28:08.245Z,9.20
2023-05-05T12:30:37.056Z,7.63
2023-05-05T12:33:07.000Z,10.20
2023-05-05T12:35:37.027Z,8.30
2023-05-05T12:38:05.763Z,9.53
2023-05-05T12:40:52.835Z,7.97
2023-05-05T12:43:30.077Z,10.20
2023-05-05T12:46:07.984Z,7.73
2023-05-05T12:48:38.535Z,9.07
2023-05-05T12:51:20.798Z,8.60
2023-05-05T12:54:01.563Z,8.33
2023-05-05T12:56:40.498Z,10.13
2023-05-05T12:59:10.726Z,9.17
2023-05-05T13:01:50.985Z,8.53
2023-05-05T13:04:21.286Z,9.40
2023-05-05T13:07:09.458Z,7.67
2023-05-05T13:09:37.773Z,9.13
2023-05-05T13:12:08.226Z,8.80
2023-05-05T13:14:36.579Z,9.47
2023-05-05T13:17:04.758Z,11.20
2023-05-05T13:19:32.776Z,10.87
2023-05-05T13:22:02.322Z,8.20
2023-05-05T13:24:46.357Z,9.97
2023-05-05T13:27:18.290Z,7.43
2023-05-05T13:29:46.239Z,10.13
2023-05-05T13:32:14.188Z,8.90
2023-05-05T13:34:42.584Z,7.63
2023-05-05T13:37:11.870Z,7.83
2023-05-05T13:39:39.810Z,8.70
2023-05-05T13:42:08.184Z,7.27
2023-05-05T13:44:36.238Z,7.70
2023-05-05T13:47:05.411Z,7.93
2023-05-05T13:49:33.367Z,9.00
2023-05-05T13:52:01.423Z,7.60
2023-05-05T13:54:30.987Z,8.53
2023-05-05T13:56:59.117Z,7.50
2023-05-05T13:59:27.518Z,7.53
2023-05-05T14:01:55.916Z,6.77
2023-05-05T14:04:23.939Z,8.23
2023-05-05T14:06:53.309Z,19.73
2023-05-05T14:09:21.319Z,6.90
2023-05-05T14:11:50.657Z,8.67
2023-05-05T14:14:19.638Z,6.90
2023-05-05T14:16:50.036Z,8.53
2023-05-05T14:19:18.698Z,5.83
2023-05-05T14:21:46.766Z,5.77
2023-05-05T14:24:14.734Z,7.53
2023-05-05T14:26:42.756Z,6.53
2023-05-05T14:29:12.092Z,6.57
2023-05-05T14:31:40.080Z,8.23
2023-05-05T14:34:08.037Z,10.13
2023-05-05T14:36:36.096Z,6.73
2023-05-05T14:39:04.469Z,6.73
2023-05-05T14:41:32.657Z,8.27
2023-05-05T14:44:00.568Z,9.13
2023-05-05T14:46:31.279Z,10.87
2023-05-05T14:48:59.472Z,8.97
2023-05-05T14:51:27.599Z,19.23
2023-05-05T14:53:55.631Z,7.43
2023-05-05T14:56:24.430Z,7.40
2023-05-05T14:58:52.324Z,12.37
2023-05-05T15:01:20.838Z,11.13
2023-05-05T15:03:50.359Z,7.80
2023-05-05T15:06:18.826Z,6.07
2023-05-05T15:08:46.808Z,7.80
2023-05-05T15:11:14.731Z,9.00
2023-05-05T15:13:42.652Z,7.30
2023-05-05T15:16:10.630Z,6.23
2023-05-05T15:18:38.652Z,6.13
2023-05-05T15:21:08.132Z,4.20
2023-05-05T15:23:36.583Z,8.17
2023-05-05T15:26:04.797Z,8.20
2023-05-05T15:28:32.704Z,7.63
2023-05-05T15:31:02.548Z,5.57
2023-05-05T15:33:31.717Z,7.10
2023-05-05T15:36:00.297Z,6.37
2023-05-05T15:38:31.289Z,5.97
2023-05-05T15:40:59.728Z,4.57
2023-05-05T15:43:27.906Z,6.83
2023-05-05T15:45:55.798Z,7.20
2023-05-05T15:48:23.688Z,7.57
2023-05-05T15:50:51.738Z,15.40
2023-05-05T15:53:19.638Z,9.80
2023-05-05T15:55:48.903Z,3.87
2023-05-05T15:58:16.927Z,6.53
2023-05-05T16:00:44.819Z,4.73
2023-05-05T16:03:13.338Z,6.30
2023-05-05T16:05:41.746Z,8.60
2023-05-05T16:08:10.815Z,6.37
2023-05-05T16:10:38.767Z,5.13
2023-05-05T16:13:08.129Z,10.47
2023-05-05T16:15:36.249Z,8.73
2023-05-05T16:18:04.640Z,7.03
2023-05-05T16:20:32.548Z,7.57
2023-05-05T16:23:00.390Z,6.07
2023-05-05T16:25:28.349Z,7.37
2023-05-05T16:27:57.434Z,4.63
2023-05-05T16:30:26.806Z,5.47
2023-05-05T16:32:54.892Z,11.67
2023-05-05T16:35:23.819Z,7.57
2023-05-05T16:37:52.525Z,5.30
2023-05-05T16:40:20.574Z,9.47
2023-05-05T16:42:48.457Z,6.60
2023-05-05T16:45:16.432Z,6.37
2023-05-05T16:47:45.710Z,5.73
2023-05-05T16:50:13.667Z,3.90
2023-05-05T16:52:41.544Z,6.10
2023-05-05T16:55:10.559Z,6.40
2023-05-05T16:57:38.848Z,8.03
2023-05-05T17:00:09.247Z,6.50
2023-05-05T17:02:37.265Z,6.40
2023-05-05T17:05:07.680Z,5.77
2023-05-05T17:07:35.888Z,6.73
2023-05-05T17:10:04.178Z,7.90
2023-05-05T17:12:32.085Z,7.43
2023-05-05T17:15:00.267Z,7.40
2023-05-05T17:17:28.231Z,7.90
2023-05-05T17:19:56.278Z,12.13
2023-05-05T17:22:25.703Z,9.87
2023-05-05T17:24:53.582Z,9.20
2023-05-05T17:27:21.545Z,10.70
2023-05-05T17:29:49.540Z,12.60
2023-05-05T17:32:17.386Z,8.23
2023-05-05T17:34:45.395Z,8.00
2023-05-05T17:37:13.283Z,8.97
2023-05-05T17:39:43.541Z,7.53
2023-05-05T17:42:11.683Z,7.97
2023-05-05T17:44:39.605Z,9.57
2023-05-05T17:47:08.440Z,10.07
2023-05-05T17:49:36.417Z,7.57
2023-05-05T17:52:04.543Z,9.00
2023-05-05T17:54:32.456Z,11.00
2023-05-05T17:57:02.353Z,9.63
2023-05-05T17:59:32.288Z,7.87
2023-05-05T18:02:00.335Z,7.87
2023-05-05T18:04:28.261Z,8.27
2023-05-05T18:06:56.565Z,12.03
2023-05-05T18:09:24.634Z,9.93
2023-05-05T18:11:53.636Z,8.47
2023-05-05T18:14:23.804Z,7.80
2023-05-05T18:16:52.474Z,8.37
2023-05-05T18:19:22.506Z,8.87
2023-05-05T18:21:52.734Z,9.97
2023-05-05T18:24:21.127Z,11.00
2023-05-05T18:26:50.515Z,9.93
2023-05-05T18:29:18.815Z,10.97
2023-05-05T18:31:51.448Z,10.63
2023-05-05T18:34:20.567Z,14.53
2023-05-05T18:36:52.892Z,18.40
2023-05-05T18:39:21.275Z,19.80
2023-05-05T18:41:49.158Z,17.43
2023-05-05T18:44:17.525Z,19.97
2023-05-05T18:46:46.834Z,22.47
2023-05-05T18:49:16.400Z,22.00
2023-05-05T18:51:44.722Z,25.33
2023-05-05T18:54:12.616Z,22.63
2023-05-05T18:56:40.667Z,21.17
2023-05-05T18:59:08.735Z,23.30
2023-05-05T19:01:37.165Z,20.60
2023-05-05T19:04:12.793Z,22.63
2023-05-05T19:06:49.332Z,24.53
2023-05-05T19:09:18.584Z,25.47
2023-05-05T19:11:46.540Z,24.60
2023-05-05T19:14:14.923Z,25.73
2023-05-05T19:16:42.979Z,21.87
2023-05-05T19:19:11.109Z,23.30
2023-05-05T19:21:40.114Z,21.80
2023-05-05T19:24:10.265Z,20.03
2023-05-05T19:26:38.258Z,21.60
2023-05-05T19:29:06.488Z,22.33
2023-05-05T19:31:34.534Z,21.97
2023-05-05T19:34:05.290Z,24.00
2023-05-05T19:36:34.812Z,24.03
2023-05-05T19:39:05.553Z,23.47
2023-05-05T19:41:35.496Z,26.50
2023-05-05T19:44:03.613Z,24.30
2023-05-05T19:46:31.931Z,27.33
2023-05-05T19:49:00.009Z,25.73
2023-05-05T19:51:28.069Z,23.93
2023-05-05T19:53:56.044Z,24.27
2023-05-05T19:56:23.946Z,21.47
2023-05-05T19:58:57.331Z,24.77
2023-05-05T20:01:25.591Z,24.90
2023-05-05T20:03:56.975Z,20.67
2023-05-05T20:06:25.351Z,21.90
2023-05-05T20:08:54.639Z,21.50
2023-05-05T20:11:23.588Z,23.00
2023-05-05T20:13:51.805Z,24.17
2023-05-05T20:16:22.421Z,20.60
2023-05-05T20:18:50.445Z,23.00
2023-05-05T20:21:19.112Z,24.63
2023-05-05T20:23:48.037Z,23.47
2023-05-05T20:26:16.049Z,27.77
2023-05-05T20:28:45.671Z,27.50
2023-05-05T20:31:15.932Z,25.30
2023-05-05T20:33:45.547Z,30.37
2023-05-05T20:36:13.784Z,32.77
2023-05-05T20:38:41.694Z,33.27
2023-05-05T20:41:09.610Z,33.30
2023-05-05T20:43:37.717Z,35.13
2023-05-05T20:46:05.838Z,34.43
2023-05-05T20:48:33.804Z,33.10
2023-05-05T20:51:05.955Z,32.73
2023-05-05T20:53:34.124Z,32.70
2023-05-05T20:56:02.070Z,32.70
2023-05-05T20:58:31.284Z,32.03
2023-05-05T21:00:59.233Z,33.57
2023-05-05T21:03:27.211Z,32.27
2023-05-05T21:05:55.174Z,35.00
2023-05-05T21:08:24.634Z,38.57
2023-05-05T21:10:52.527Z,35.57
2023-05-05T21:13:20.543Z,36.67
2023-05-05T21:15:51.153Z,35.93
2023-05-05T21:18:19.030Z,33.13
2023-05-05T21:20:46.978Z,33.77
2023-05-05T21:23:14.852Z,30.40
2023-05-05T21:25:44.512Z,33.00
2023-05-05T21:28:12.383Z,34.20
2023-05-05T21:30:40.289Z,33.73
2023-05-05T21:33:08.531Z,35.13
2023-05-05T21:35:36.475Z,31.63
2023-05-05T21:38:04.447Z,32.40
2023-05-05T21:40:32.364Z,32.20
2023-05-05T21:43:01.564Z,31.27
2023-05-05T21:45:29.528Z,31.10
2023-05-05T21:47:57.609Z,35.37
2023-05-05T21:50:27.561Z,31.30
2023-05-05T21:52:56.128Z,34.60
2023-05-05T21:55:24.195Z,35.43
2023-05-05T21:57:52.387Z,34.10
2023-05-05T22:00:22.278Z,32.93
2023-05-05T22:02:50.215Z,35.47
2023-05-05T22:05:18.297Z,35.03
2023-05-05T22:07:46.513Z,34.40
2023-05-05T22:10:14.494Z,34.13
2023-05-05T22:12:42.427Z,30.40
2023-05-05T22:15:11.790Z,29.30
2023-05-05T22:17:41.247Z,30.50
2023-05-05T22:20:10.359Z,27.80
2023-05-05T22:22:38.518Z,33.33
2023-05-05T22:25:08.097Z,31.80
2023-05-05T22:27:36.276Z,30.97
2023-05-05T22:30:05.204Z,28.80
2023-05-05T22:32:33.926Z,27.33
2023-05-05T22:35:03.159Z,26.57
2023-05-05T22:37:31.017Z,25.40
2023-05-05T22:39:58.935Z,25.93
2023-05-05T22:42:27.139Z,29.73
2023-05-05T22:44:55.034Z,28.93
2023-05-05T22:47:23.317Z,31.07
2023-05-05T22:49:51.617Z,29.37
2023-05-05T22:52:21.184Z,27.83
2023-05-05T22:54:49.074Z,26.40
2023-05-05T22:57:16.920Z,28.67
2023-05-05T22:59:44.894Z,28.07
2023-05-05T23:02:12.843Z,25.97
2023-05-05T23:04:41.017Z,29.10
2023-05-05T23:07:09.071Z,24.17
2023-05-05T23:09:38.397Z,26.20
2023-05-05T23:12:06.541Z,26.30
2023-05-05T23:14:34.579Z,26.77
2023-05-05T23:17:02.644Z,30.33
2023-05-05T23:19:32.433Z,33.27
2023-05-05T23:22:00.860Z,35.77
2023-05-05T23:24:29.482Z,38.33
2023-05-05T23:27:02.056Z,38.53
2023-05-05T23:29:30.601Z,39.07
2023-05-05T23:31:59.147Z,40.90
2023-05-05T23:34:27.806Z,42.27
2023-05-05T23:36:55.851Z,48.27
2023-05-05T23:39:23.724Z,44.67
2023-05-05T23:41:51.940Z,47.07
2023-05-05T23:44:21.122Z,45.73
2023-05-05T23:46:49.300Z,47.40
2023-05-05T23:49:17.244Z,49.30
2023-05-05T23:51:45.162Z,50.80
2023-05-05T23:54:13.069Z,48.27
2023-05-05T23:56:42.594Z,44.77
2023-05-05T23:59:10.692Z,43.53
